sensor_id;sensor_type;location;lat;lon;timestamp;pressure;altitude;pressure_sealevel;temperature;humidity
11223;BME280;5668;52.012;8.724;2022-07-10T00:01:00;101085.41;;;18.37;60.79
11223;BME280;5668;52.012;8.724;2022-07-10T00:03:27;101083.06;;;18.34;61.10
11223;BME280;5668;52.012;8.724;2022-07-10T00:05:54;101093.88;;;18.31;60.74
11223;BME280;5668;52.012;8.724;2022-07-10T00:08:22;101092.63;;;18.26;60.97
11223;BME280;5668;52.012;8.724;2022-07-10T00:10:50;101090.97;;;18.25;61.45
11223;BME280;5668;52.012;8.724;2022-07-10T00:13:17;101084.03;;;18.24;61.56
11223;BME280;5668;52.012;8.724;2022-07-10T00:15:46;101088.47;;;18.23;61.63
11223;BME280;5668;52.012;8.724;2022-07-10T00:18:13;101081.81;;;18.19;61.92
11223;BME280;5668;52.012;8.724;2022-07-10T00:20:40;101082.78;;;18.18;61.72
11223;BME280;5668;52.012;8.724;2022-07-10T00:23:08;101088.44;;;18.13;61.80
11223;BME280;5668;52.012;8.724;2022-07-10T00:25:35;101077.91;;;18.13;61.75
11223;BME280;5668;52.012;8.724;2022-07-10T00:28:03;101075.41;;;18.12;61.96
11223;BME280;5668;52.012;8.724;2022-07-10T00:30:30;101072.94;;;18.10;61.92
11223;BME280;5668;52.012;8.724;2022-07-10T00:32:59;101069.63;;;18.08;61.91
11223;BME280;5668;52.012;8.724;2022-07-10T00:35:26;101078.72;;;18.04;61.55
11223;BME280;5668;52.012;8.724;2022-07-10T00:37:54;101079.28;;;17.98;61.52
11223;BME280;5668;52.012;8.724;2022-07-10T00:40:22;101072.63;;;17.94;61.45
11223;BME280;5668;52.012;8.724;2022-07-10T00:42:49;101068.34;;;17.93;61.85
11223;BME280;5668;52.012;8.724;2022-07-10T00:45:16;101079.81;;;17.92;61.56
11223;BME280;5668;52.012;8.724;2022-07-10T00:47:44;101077.31;;;17.91;62.10
11223;BME280;5668;52.012;8.724;2022-07-10T00:50:13;101074.84;;;17.89;62.00
11223;BME280;5668;52.012;8.724;2022-07-10T00:52:44;101080.13;;;17.89;62.32
11223;BME280;5668;52.012;8.724;2022-07-10T00:55:14;101076.66;;;17.89;62.10
11223;BME280;5668;52.012;8.724;2022-07-10T00:57:41;101073.19;;;17.88;62.61
11223;BME280;5668;52.012;8.724;2022-07-10T01:00:09;101066.53;;;17.84;63.02
11223;BME280;5668;52.012;8.724;2022-07-10T01:02:39;101074.53;;;17.83;62.72
11223;BME280;5668;52.012;8.724;2022-07-10T01:05:08;101074.00;;;17.79;62.67
11223;BME280;5668;52.012;8.724;2022-07-10T01:07:37;101080.47;;;17.75;63.14
11223;BME280;5668;52.012;8.724;2022-07-10T01:10:05;101074.94;;;17.78;63.17
11223;BME280;5668;52.012;8.724;2022-07-10T01:12:34;101061.81;;;17.78;63.26
11223;BME280;5668;52.012;8.724;2022-07-10T01:15:02;101057.50;;;17.77;63.16
11223;BME280;5668;52.012;8.724;2022-07-10T01:17:30;101054.16;;;17.75;63.31
11223;BME280;5668;52.012;8.724;2022-07-10T01:20:00;101046.00;;;17.68;63.77
11223;BME280;5668;52.012;8.724;2022-07-10T01:22:32;101052.63;;;17.63;63.75
11223;BME280;5668;52.012;8.724;2022-07-10T01:25:00;101056.47;;;17.59;64.42
11223;BME280;5668;52.012;8.724;2022-07-10T01:27:27;101056.09;;;17.63;64.07
11223;BME280;5668;52.012;8.724;2022-07-10T01:29:54;101051.22;;;17.59;64.49
11223;BME280;5668;52.012;8.724;2022-07-10T01:32:22;101051.22;;;17.59;64.38
11223;BME280;5668;52.012;8.724;2022-07-10T01:34:49;101054.94;;;17.56;64.88
11223;BME280;5668;52.012;8.724;2022-07-10T01:37:16;101051.47;;;17.56;64.64
11223;BME280;5668;52.012;8.724;2022-07-10T01:39:45;101053.41;;;17.54;65.10
11223;BME280;5668;52.012;8.724;2022-07-10T01:42:12;101048.00;;;17.55;64.85
11223;BME280;5668;52.012;8.724;2022-07-10T01:44:39;101045.50;;;17.54;65.13
11223;BME280;5668;52.012;8.724;2022-07-10T01:47:07;101051.06;;;17.51;64.90
11223;BME280;5668;52.012;8.724;2022-07-10T01:49:35;101060.16;;;17.47;65.79
11223;BME280;5668;52.012;8.724;2022-07-10T01:52:04;101043.44;;;17.48;65.62
11223;BME280;5668;52.012;8.724;2022-07-10T01:54:31;101042.34;;;17.50;65.56
11223;BME280;5668;52.012;8.724;2022-07-10T01:57:00;101041.50;;;17.50;65.50
11223;BME280;5668;52.012;8.724;2022-07-10T01:59:28;101036.91;;;17.52;65.58
11223;BME280;5668;52.012;8.724;2022-07-10T02:01:55;101026.56;;;17.50;65.85
11223;BME280;5668;52.012;8.724;2022-07-10T02:04:24;101025.44;;;17.53;65.66
11223;BME280;5668;52.012;8.724;2022-07-10T02:07:09;101023.22;;;17.48;66.18
11223;BME280;5668;52.012;8.724;2022-07-10T02:09:36;101022.41;;;17.48;66.10
11223;BME280;5668;52.012;8.724;2022-07-10T02:12:07;101019.91;;;17.46;65.77
11223;BME280;5668;52.012;8.724;2022-07-10T02:14:35;101020.03;;;17.45;65.89
11223;BME280;5668;52.012;8.724;2022-07-10T02:17:03;101019.34;;;17.42;66.27
11223;BME280;5668;52.012;8.724;2022-07-10T02:19:30;101006.88;;;17.45;66.43
11223;BME280;5668;52.012;8.724;2022-07-10T02:21:58;101011.19;;;17.46;66.05
11223;BME280;5668;52.012;8.724;2022-07-10T02:24:26;101008.56;;;17.46;66.27
11223;BME280;5668;52.012;8.724;2022-07-10T02:26:54;101007.59;;;17.47;66.02
11223;BME280;5668;52.012;8.724;2022-07-10T02:29:24;101005.66;;;17.49;65.95
11223;BME280;5668;52.012;8.724;2022-07-10T02:31:51;101010.94;;;17.49;65.99
11223;BME280;5668;52.012;8.724;2022-07-10T02:34:18;101015.34;;;17.48;66.28
11223;BME280;5668;52.012;8.724;2022-07-10T02:36:46;101009.97;;;17.50;66.08
11223;BME280;5668;52.012;8.724;2022-07-10T02:39:13;101007.34;;;17.50;65.96
11223;BME280;5668;52.012;8.724;2022-07-10T02:41:40;101007.59;;;17.47;66.41
11223;BME280;5668;52.012;8.724;2022-07-10T02:44:08;101001.38;;;17.48;66.23
11223;BME280;5668;52.012;8.724;2022-07-10T02:46:36;101000.28;;;17.50;65.97
11223;BME280;5668;52.012;8.724;2022-07-10T02:49:04;100996.13;;;17.48;66.35
11223;BME280;5668;52.012;8.724;2022-07-10T02:51:31;100993.63;;;17.46;66.10
11223;BME280;5668;52.012;8.724;2022-07-10T02:53:58;100995.41;;;17.46;66.18
11223;BME280;5668;52.012;8.724;2022-07-10T02:56:25;100992.78;;;17.46;65.98
11223;BME280;5668;52.012;8.724;2022-07-10T02:58:53;100991.28;;;17.43;66.43
11223;BME280;5668;52.012;8.724;2022-07-10T03:01:20;100993.06;;;17.42;66.50
11223;BME280;5668;52.012;8.724;2022-07-10T03:03:49;100982.81;;;17.39;66.40
11223;BME280;5668;52.012;8.724;2022-07-10T03:06:16;100989.75;;;17.40;66.67
11223;BME280;5668;52.012;8.724;2022-07-10T03:08:43;100996.09;;;17.38;66.60
11223;BME280;5668;52.012;8.724;2022-07-10T03:11:10;100992.50;;;17.39;66.89
11223;BME280;5668;52.012;8.724;2022-07-10T03:13:38;100987.25;;;17.39;66.75
11223;BME280;5668;52.012;8.724;2022-07-10T03:16:05;100988.91;;;17.40;66.67
11223;BME280;5668;52.012;8.724;2022-07-10T03:18:33;100990.81;;;17.38;66.71
11223;BME280;5668;52.012;8.724;2022-07-10T03:21:01;100988.34;;;17.36;66.82
11223;BME280;5668;52.012;8.724;2022-07-10T03:23:29;100988.63;;;17.33;67.27
11223;BME280;5668;52.012;8.724;2022-07-10T03:25:56;100988.75;;;17.32;67.32
11223;BME280;5668;52.012;8.724;2022-07-10T03:28:23;100994.00;;;17.32;66.95
11223;BME280;5668;52.012;8.724;2022-07-10T03:30:51;100990.53;;;17.31;67.10
11223;BME280;5668;52.012;8.724;2022-07-10T03:33:18;100994.13;;;17.30;67.25
11223;BME280;5668;52.012;8.724;2022-07-10T03:35:45;100992.75;;;17.26;67.63
11223;BME280;5668;52.012;8.724;2022-07-10T03:38:14;100992.75;;;17.26;67.93
11223;BME280;5668;52.012;8.724;2022-07-10T03:40:41;100983.91;;;17.27;67.33
11223;BME280;5668;52.012;8.724;2022-07-10T03:43:09;100988.44;;;17.25;67.87
11223;BME280;5668;52.012;8.724;2022-07-10T03:45:36;100996.31;;;17.25;68.23
11223;BME280;5668;52.012;8.724;2022-07-10T03:48:04;101003.50;;;17.23;67.97
11223;BME280;5668;52.012;8.724;2022-07-10T03:50:31;101006.13;;;17.23;68.28
11223;BME280;5668;52.012;8.724;2022-07-10T03:52:59;100995.91;;;17.20;68.24
11223;BME280;5668;52.012;8.724;2022-07-10T03:55:28;100999.50;;;17.19;68.49
11223;BME280;5668;52.012;8.724;2022-07-10T03:57:55;100996.16;;;17.17;68.65
11223;BME280;5668;52.012;8.724;2022-07-10T04:00:23;100994.50;;;17.16;68.96
11223;BME280;5668;52.012;8.724;2022-07-10T04:02:55;101003.34;;;17.15;68.67
11223;BME280;5668;52.012;8.724;2022-07-10T04:05:23;100998.34;;;17.12;69.32
11223;BME280;5668;52.012;8.724;2022-07-10T04:07:51;101003.75;;;17.11;69.47
11223;BME280;5668;52.012;8.724;2022-07-10T04:10:19;100995.28;;;17.07;69.73
11223;BME280;5668;52.012;8.724;2022-07-10T04:12:49;100998.91;;;17.06;70.22
11223;BME280;5668;52.012;8.724;2022-07-10T04:15:16;100999.69;;;17.07;70.36
11223;BME280;5668;52.012;8.724;2022-07-10T04:17:43;101004.16;;;17.06;70.07
11223;BME280;5668;52.012;8.724;2022-07-10T04:20:12;101001.66;;;17.05;70.42
11223;BME280;5668;52.012;8.724;2022-07-10T04:22:40;101001.78;;;17.03;70.24
11223;BME280;5668;52.012;8.724;2022-07-10T04:25:08;101001.78;;;17.03;70.44
11223;BME280;5668;52.012;8.724;2022-07-10T04:27:35;100998.19;;;17.04;70.54
11223;BME280;5668;52.012;8.724;2022-07-10T04:30:05;100999.28;;;17.01;70.38
11223;BME280;5668;52.012;8.724;2022-07-10T04:32:32;100998.72;;;16.98;69.97
11223;BME280;5668;52.012;8.724;2022-07-10T04:35:00;100993.97;;;16.92;70.41
11223;BME280;5668;52.012;8.724;2022-07-10T04:37:27;100992.34;;;16.91;70.74
11223;BME280;5668;52.012;8.724;2022-07-10T04:39:55;100992.16;;;16.92;70.79
11223;BME280;5668;52.012;8.724;2022-07-10T04:42:22;100999.22;;;16.92;71.13
11223;BME280;5668;52.012;8.724;2022-07-10T04:44:49;100997.31;;;16.94;71.16
11223;BME280;5668;52.012;8.724;2022-07-10T04:47:18;100997.31;;;16.94;71.22
11223;BME280;5668;52.012;8.724;2022-07-10T04:49:45;101001.59;;;16.95;70.83
11223;BME280;5668;52.012;8.724;2022-07-10T04:52:12;101001.59;;;16.95;70.95
11223;BME280;5668;52.012;8.724;2022-07-10T04:54:40;101009.47;;;16.95;70.86
11223;BME280;5668;52.012;8.724;2022-07-10T04:57:07;101007.81;;;16.94;70.89
11223;BME280;5668;52.012;8.724;2022-07-10T04:59:34;101004.22;;;16.95;70.97
11223;BME280;5668;52.012;8.724;2022-07-10T05:02:02;101004.22;;;16.95;70.83
11223;BME280;5668;52.012;8.724;2022-07-10T05:04:30;101007.56;;;16.97;70.69
11223;BME280;5668;52.012;8.724;2022-07-10T05:06:58;101002.31;;;16.97;70.74
11223;BME280;5668;52.012;8.724;2022-07-10T05:09:25;101001.34;;;16.98;70.84
11223;BME280;5668;52.012;8.724;2022-07-10T05:11:52;100994.16;;;17.00;70.65
11223;BME280;5668;52.012;8.724;2022-07-10T05:14:19;100997.72;;;16.99;70.46
11223;BME280;5668;52.012;8.724;2022-07-10T05:16:47;100996.78;;;17.00;70.42
11223;BME280;5668;52.012;8.724;2022-07-10T05:19:15;101005.47;;;17.00;70.73
11223;BME280;5668;52.012;8.724;2022-07-10T05:21:43;101010.06;;;17.08;70.10
11223;BME280;5668;52.012;8.724;2022-07-10T05:24:10;101005.22;;;17.03;70.60
11223;BME280;5668;52.012;8.724;2022-07-10T05:26:38;101007.56;;;17.07;70.49
11223;BME280;5668;52.012;8.724;2022-07-10T05:29:05;101004.16;;;17.06;70.42
11223;BME280;5668;52.012;8.724;2022-07-10T05:31:32;101007.44;;;17.08;70.56
11223;BME280;5668;52.012;8.724;2022-07-10T05:34:00;101018.66;;;17.10;70.41
11223;BME280;5668;52.012;8.724;2022-07-10T05:36:27;101008.88;;;17.12;70.12
11223;BME280;5668;52.012;8.724;2022-07-10T05:38:55;101008.88;;;17.12;70.40
11223;BME280;5668;52.012;8.724;2022-07-10T05:41:23;101008.88;;;17.12;70.10
11223;BME280;5668;52.012;8.724;2022-07-10T05:43:50;101002.50;;;17.15;69.87
11223;BME280;5668;52.012;8.724;2022-07-10T05:46:17;101008.03;;;17.12;70.45
11223;BME280;5668;52.012;8.724;2022-07-10T05:48:44;101009.69;;;17.13;70.00
11223;BME280;5668;52.012;8.724;2022-07-10T05:51:12;101011.38;;;17.14;70.41
11223;BME280;5668;52.012;8.724;2022-07-10T05:53:39;101009.53;;;17.14;70.61
11223;BME280;5668;52.012;8.724;2022-07-10T05:56:08;101018.00;;;17.18;70.54
11223;BME280;5668;52.012;8.724;2022-07-10T05:58:35;101010.13;;;17.18;70.38
11223;BME280;5668;52.012;8.724;2022-07-10T06:01:03;101021.47;;;17.18;70.93
11223;BME280;5668;52.012;8.724;2022-07-10T06:03:30;101022.31;;;17.19;71.03
11223;BME280;5668;52.012;8.724;2022-07-10T06:05:58;101020.38;;;17.21;70.97
11223;BME280;5668;52.012;8.724;2022-07-10T06:08:26;101021.22;;;17.21;71.17
11223;BME280;5668;52.012;8.724;2022-07-10T06:10:54;101024.66;;;17.22;71.50
11223;BME280;5668;52.012;8.724;2022-07-10T06:13:23;101027.03;;;17.25;71.51
11223;BME280;5668;52.012;8.724;2022-07-10T06:15:50;101025.47;;;17.22;71.11
11223;BME280;5668;52.012;8.724;2022-07-10T06:18:17;101025.63;;;17.21;71.04
11223;BME280;5668;52.012;8.724;2022-07-10T06:20:44;101023.69;;;17.23;71.17
11223;BME280;5668;52.012;8.724;2022-07-10T06:23:11;101023.69;;;17.23;71.23
11223;BME280;5668;52.012;8.724;2022-07-10T06:25:39;101027.16;;;17.23;71.01
11223;BME280;5668;52.012;8.724;2022-07-10T06:28:06;101021.91;;;17.23;71.22
11223;BME280;5668;52.012;8.724;2022-07-10T06:30:35;101022.59;;;17.25;71.33
11223;BME280;5668;52.012;8.724;2022-07-10T06:33:02;101020.09;;;17.24;71.39
11223;BME280;5668;52.012;8.724;2022-07-10T06:35:29;101019.00;;;17.26;71.37
11223;BME280;5668;52.012;8.724;2022-07-10T06:37:56;101021.66;;;17.26;71.65
11223;BME280;5668;52.012;8.724;2022-07-10T06:40:24;101032.03;;;17.28;71.48
11223;BME280;5668;52.012;8.724;2022-07-10T06:42:51;101016.81;;;17.31;71.52
11223;BME280;5668;52.012;8.724;2022-07-10T06:45:19;101018.47;;;17.32;71.06
11223;BME280;5668;52.012;8.724;2022-07-10T06:47:48;101022.66;;;17.35;71.00
11223;BME280;5668;52.012;8.724;2022-07-10T06:50:25;101016.56;;;17.34;71.01
11223;BME280;5668;52.012;8.724;2022-07-10T06:52:52;101021.53;;;17.37;71.10
11223;BME280;5668;52.012;8.724;2022-07-10T06:55:20;101027.38;;;17.41;71.35
11223;BME280;5668;52.012;8.724;2022-07-10T06:57:48;101019.47;;;17.41;71.12
11223;BME280;5668;52.012;8.724;2022-07-10T07:00:15;101019.06;;;17.46;70.51
11223;BME280;5668;52.012;8.724;2022-07-10T07:02:43;101018.81;;;17.49;70.46
11223;BME280;5668;52.012;8.724;2022-07-10T07:05:12;101015.22;;;17.50;70.08
11223;BME280;5668;52.012;8.724;2022-07-10T07:07:39;101014.94;;;17.53;70.16
11223;BME280;5668;52.012;8.724;2022-07-10T07:10:09;101008.59;;;17.55;69.99
11223;BME280;5668;52.012;8.724;2022-07-10T07:12:37;101007.50;;;17.58;69.60
11223;BME280;5668;52.012;8.724;2022-07-10T07:15:06;101013.34;;;17.61;69.54
11223;BME280;5668;52.012;8.724;2022-07-10T07:17:38;101014.88;;;17.64;69.15
11223;BME280;5668;52.012;8.724;2022-07-10T07:20:25;101017.22;;;17.67;68.82
11223;BME280;5668;52.012;8.724;2022-07-10T07:23:10;101017.06;;;17.68;69.09
11223;BME280;5668;52.012;8.724;2022-07-10T07:25:37;101013.34;;;17.71;68.60
11223;BME280;5668;52.012;8.724;2022-07-10T07:28:08;101018.63;;;17.71;68.64
11223;BME280;5668;52.012;8.724;2022-07-10T07:30:36;101015.84;;;17.72;68.53
11223;BME280;5668;52.012;8.724;2022-07-10T07:33:03;101015.03;;;17.72;68.40
11223;BME280;5668;52.012;8.724;2022-07-10T07:35:32;101014.75;;;17.65;68.38
11223;BME280;5668;52.012;8.724;2022-07-10T07:38:00;101021.38;;;17.69;68.30
11223;BME280;5668;52.012;8.724;2022-07-10T07:40:28;101007.53;;;17.67;68.29
11223;BME280;5668;52.012;8.724;2022-07-10T07:42:56;101017.22;;;17.67;68.32
11223;BME280;5668;52.012;8.724;2022-07-10T07:45:24;101017.50;;;17.64;68.00
11223;BME280;5668;52.012;8.724;2022-07-10T07:47:53;101011.94;;;17.67;68.21
11223;BME280;5668;52.012;8.724;2022-07-10T07:50:22;101017.50;;;17.64;68.37
11223;BME280;5668;52.012;8.724;2022-07-10T07:52:53;101011.56;;;17.71;68.22
11223;BME280;5668;52.012;8.724;2022-07-10T07:55:21;101017.53;;;17.73;67.78
11223;BME280;5668;52.012;8.724;2022-07-10T07:57:50;101018.19;;;17.66;68.03
11223;BME280;5668;52.012;8.724;2022-07-10T08:00:19;101020.53;;;17.69;67.97
11223;BME280;5668;52.012;8.724;2022-07-10T08:02:48;101019.84;;;17.67;68.24
11223;BME280;5668;52.012;8.724;2022-07-10T08:05:16;101013.91;;;17.65;68.85
11223;BME280;5668;52.012;8.724;2022-07-10T08:07:45;101016.53;;;17.65;68.85
11223;BME280;5668;52.012;8.724;2022-07-10T08:10:16;101014.56;;;17.67;69.62
11223;BME280;5668;52.012;8.724;2022-07-10T08:12:45;101009.06;;;17.70;69.78
11223;BME280;5668;52.012;8.724;2022-07-10T08:15:14;101013.50;;;17.69;69.51
11223;BME280;5668;52.012;8.724;2022-07-10T08:17:42;101012.94;;;17.66;69.19
11223;BME280;5668;52.012;8.724;2022-07-10T08:20:12;101013.34;;;17.71;69.35
11223;BME280;5668;52.012;8.724;2022-07-10T08:22:40;101010.03;;;17.78;69.35
11223;BME280;5668;52.012;8.724;2022-07-10T08:25:08;101008.81;;;17.92;69.00
11223;BME280;5668;52.012;8.724;2022-07-10T08:27:37;101005.09;;;17.95;67.74
11223;BME280;5668;52.012;8.724;2022-07-10T08:30:06;101001.50;;;17.96;67.13
11223;BME280;5668;52.012;8.724;2022-07-10T08:32:34;101001.19;;;17.99;66.48
11223;BME280;5668;52.012;8.724;2022-07-10T08:35:02;101003.44;;;18.03;66.30
11223;BME280;5668;52.012;8.724;2022-07-10T08:37:29;101003.56;;;18.11;66.39
11223;BME280;5668;52.012;8.724;2022-07-10T08:39:57;101005.34;;;18.21;66.15
11223;BME280;5668;52.012;8.724;2022-07-10T08:42:25;101001.63;;;18.23;65.37
11223;BME280;5668;52.012;8.724;2022-07-10T08:44:54;101007.84;;;18.22;65.23
11223;BME280;5668;52.012;8.724;2022-07-10T08:47:22;101010.09;;;18.27;65.68
11223;BME280;5668;52.012;8.724;2022-07-10T08:49:51;101011.19;;;18.34;64.43
11223;BME280;5668;52.012;8.724;2022-07-10T08:52:26;101011.59;;;18.39;62.51
11223;BME280;5668;52.012;8.724;2022-07-10T08:54:53;101016.16;;;18.37;61.99
11223;BME280;5668;52.012;8.724;2022-07-10T08:57:23;101006.88;;;18.33;61.57
11223;BME280;5668;52.012;8.724;2022-07-10T08:59:51;100998.69;;;18.36;61.40
11223;BME280;5668;52.012;8.724;2022-07-10T09:02:19;100993.44;;;18.45;61.73
11223;BME280;5668;52.012;8.724;2022-07-10T09:04:47;100991.75;;;18.54;60.95
11223;BME280;5668;52.012;8.724;2022-07-10T09:07:15;100992.47;;;18.56;61.25
11223;BME280;5668;52.012;8.724;2022-07-10T09:09:53;100985.94;;;18.60;60.58
11223;BME280;5668;52.012;8.724;2022-07-10T09:12:21;100987.59;;;18.61;59.90
11223;BME280;5668;52.012;8.724;2022-07-10T09:14:49;100978.75;;;18.62;59.47
11223;BME280;5668;52.012;8.724;2022-07-10T09:17:16;100985.69;;;18.63;59.39
11223;BME280;5668;52.012;8.724;2022-07-10T09:19:45;100978.44;;;18.65;59.53
11223;BME280;5668;52.012;8.724;2022-07-10T09:22:13;100976.50;;;18.67;59.54
11223;BME280;5668;52.012;8.724;2022-07-10T09:24:44;100981.50;;;18.70;58.81
11223;BME280;5668;52.012;8.724;2022-07-10T09:27:14;100975.91;;;18.73;58.58
11223;BME280;5668;52.012;8.724;2022-07-10T09:29:48;100982.28;;;18.80;58.90
11223;BME280;5668;52.012;8.724;2022-07-10T09:36:03;100974.63;;;18.87;58.27
11223;BME280;5668;52.012;8.724;2022-07-10T09:38:50;100978.09;;;18.87;57.98
11223;BME280;5668;52.012;8.724;2022-07-10T09:41:20;100975.19;;;18.90;57.59
11223;BME280;5668;52.012;8.724;2022-07-10T09:43:50;100976.53;;;18.94;57.71
11223;BME280;5668;52.012;8.724;2022-07-10T09:46:18;100978.06;;;18.97;57.00
11223;BME280;5668;52.012;8.724;2022-07-10T09:48:47;100972.53;;;19.00;57.29
11223;BME280;5668;52.012;8.724;2022-07-10T09:51:16;100979.69;;;19.08;57.31
11223;BME280;5668;52.012;8.724;2022-07-10T09:53:45;100976.09;;;19.09;56.39
11223;BME280;5668;52.012;8.724;2022-07-10T09:56:13;100972.88;;;19.15;56.31
11223;BME280;5668;52.012;8.724;2022-07-10T09:58:40;100975.50;;;19.15;56.52
11223;BME280;5668;52.012;8.724;2022-07-10T10:04:29;100973.56;;;19.17;56.56
11223;BME280;5668;52.012;8.724;2022-07-10T10:07:03;100985.44;;;19.21;56.89
11223;BME280;5668;52.012;8.724;2022-07-10T10:09:37;100966.88;;;19.22;56.62
11223;BME280;5668;52.012;8.724;2022-07-10T10:12:10;100972.97;;;19.23;56.58
11223;BME280;5668;52.012;8.724;2022-07-10T10:14:41;100976.56;;;19.22;57.67
11223;BME280;5668;52.012;8.724;2022-07-10T10:17:11;100973.94;;;19.22;57.99
11223;BME280;5668;52.012;8.724;2022-07-10T10:19:41;100975.47;;;19.24;58.36
11223;BME280;5668;52.012;8.724;2022-07-10T10:22:28;100972.41;;;19.19;58.70
11223;BME280;5668;52.012;8.724;2022-07-10T10:24:57;100972.56;;;19.18;58.54
11223;BME280;5668;52.012;8.724;2022-07-10T10:27:25;100975.50;;;19.15;58.80
11223;BME280;5668;52.012;8.724;2022-07-10T10:29:53;100972.56;;;19.18;58.93
11223;BME280;5668;52.012;8.724;2022-07-10T10:32:21;100975.19;;;19.18;59.33
11223;BME280;5668;52.012;8.724;2022-07-10T10:34:50;100978.66;;;19.18;59.38
11223;BME280;5668;52.012;8.724;2022-07-10T10:37:37;100981.28;;;19.18;59.52
11223;BME280;5668;52.012;8.724;2022-07-10T10:40:08;100982.44;;;19.16;59.93
11223;BME280;5668;52.012;8.724;2022-07-10T10:42:38;100986.03;;;19.15;60.05
11223;BME280;5668;52.012;8.724;2022-07-10T10:45:39;100989.50;;;19.15;59.74
11223;BME280;5668;52.012;8.724;2022-07-10T10:48:08;100984.09;;;19.17;60.40
11223;BME280;5668;52.012;8.724;2022-07-10T10:50:41;100984.09;;;19.17;60.75
11223;BME280;5668;52.012;8.724;2022-07-10T10:53:22;100984.91;;;19.17;60.99
11223;BME280;5668;52.012;8.724;2022-07-10T10:56:23;100980.78;;;19.15;61.02
11223;BME280;5668;52.012;8.724;2022-07-10T10:58:51;100983.25;;;19.16;61.53
11223;BME280;5668;52.012;8.724;2022-07-10T11:01:27;100983.00;;;19.64;59.32
11223;BME280;5668;52.012;8.724;2022-07-10T11:04:16;100994.16;;;19.31;60.62
11223;BME280;5668;52.012;8.724;2022-07-10T11:06:47;100989.44;;;19.25;61.61
11223;BME280;5668;52.012;8.724;2022-07-10T11:09:29;100990.97;;;19.27;61.83
11223;BME280;5668;52.012;8.724;2022-07-10T11:12:03;100983.44;;;19.32;61.37
11223;BME280;5668;52.012;8.724;2022-07-10T11:14:32;100977.94;;;19.26;62.38
11223;BME280;5668;52.012;8.724;2022-07-10T11:17:00;100980.19;;;19.21;63.34
11223;BME280;5668;52.012;8.724;2022-07-10T11:19:31;100978.91;;;19.25;63.66
11223;BME280;5668;52.012;8.724;2022-07-10T11:22:24;100974.63;;;19.24;64.20
11223;BME280;5668;52.012;8.724;2022-07-10T11:25:07;100979.31;;;19.30;64.22
11223;BME280;5668;52.012;8.724;2022-07-10T11:28:04;100979.31;;;19.30;63.67
11223;BME280;5668;52.012;8.724;2022-07-10T11:30:48;100978.03;;;19.34;63.86
11223;BME280;5668;52.012;8.724;2022-07-10T11:33:17;100994.66;;;19.34;63.54
11223;BME280;5668;52.012;8.724;2022-07-10T11:35:47;100990.13;;;19.27;64.38
11223;BME280;5668;52.012;8.724;2022-07-10T11:38:20;100990.72;;;19.21;65.78
11223;BME280;5668;52.012;8.724;2022-07-10T11:40:49;100998.53;;;19.13;67.62
11223;BME280;5668;52.012;8.724;2022-07-10T11:43:19;101000.78;;;19.08;69.43
11223;BME280;5668;52.012;8.724;2022-07-10T11:45:51;100994.94;;;19.04;71.75
11223;BME280;5668;52.012;8.724;2022-07-10T11:48:22;101001.34;;;19.02;72.63
11223;BME280;5668;52.012;8.724;2022-07-10T11:50:54;101001.63;;;18.99;74.34
11223;BME280;5668;52.012;8.724;2022-07-10T11:53:25;100998.31;;;18.97;74.95
11223;BME280;5668;52.012;8.724;2022-07-10T11:55:55;100997.63;;;18.94;75.50
11223;BME280;5668;52.012;8.724;2022-07-10T11:58:24;100996.94;;;18.92;76.20
11223;BME280;5668;52.012;8.724;2022-07-10T12:01:01;100993.63;;;18.90;76.77
11223;BME280;5668;52.012;8.724;2022-07-10T12:03:34;100994.59;;;18.89;76.99
11223;BME280;5668;52.012;8.724;2022-07-10T12:06:04;100991.97;;;18.89;77.01
11223;BME280;5668;52.012;8.724;2022-07-10T12:08:43;100988.63;;;18.87;77.06
11223;BME280;5668;52.012;8.724;2022-07-10T12:11:13;100991.84;;;18.81;77.49
11223;BME280;5668;52.012;8.724;2022-07-10T12:13:41;100995.75;;;18.77;77.79
11223;BME280;5668;52.012;8.724;2022-07-10T12:16:10;100991.44;;;18.76;77.14
11223;BME280;5668;52.012;8.724;2022-07-10T12:18:38;100992.16;;;18.78;77.18
11223;BME280;5668;52.012;8.724;2022-07-10T12:21:08;100993.13;;;18.77;76.69
11223;BME280;5668;52.012;8.724;2022-07-10T12:23:36;100993.50;;;18.82;76.91
11223;BME280;5668;52.012;8.724;2022-07-10T12:26:09;100990.88;;;18.82;77.56
11223;BME280;5668;52.012;8.724;2022-07-10T12:28:57;100994.19;;;18.84;77.29
11223;BME280;5668;52.012;8.724;2022-07-10T12:31:29;100991.00;;;18.81;77.19
11223;BME280;5668;52.012;8.724;2022-07-10T12:34:02;100991.72;;;18.83;77.27
11223;BME280;5668;52.012;8.724;2022-07-10T12:36:46;100996.69;;;18.86;76.51
11223;BME280;5668;52.012;8.724;2022-07-10T12:39:15;100989.63;;;18.86;76.74
11223;BME280;5668;52.012;8.724;2022-07-10T12:41:57;100990.44;;;18.87;75.31
11223;BME280;5668;52.012;8.724;2022-07-10T12:44:38;100988.25;;;18.82;75.29
11223;BME280;5668;52.012;8.724;2022-07-10T12:47:07;100999.34;;;18.76;75.13
11223;BME280;5668;52.012;8.724;2022-07-10T12:49:57;100993.13;;;18.77;74.69
11223;BME280;5668;52.012;8.724;2022-07-10T12:52:27;100987.84;;;18.77;76.05
11223;BME280;5668;52.012;8.724;2022-07-10T12:55:09;100996.00;;;18.84;75.81
11223;BME280;5668;52.012;8.724;2022-07-10T13:01:00;100987.25;;;18.93;77.32
11223;BME280;5668;52.012;8.724;2022-07-10T13:03:27;100989.72;;;18.94;77.42
11223;BME280;5668;52.012;8.724;2022-07-10T13:05:56;100990.13;;;19.00;76.90
11223;BME280;5668;52.012;8.724;2022-07-10T13:08:23;100993.97;;;19.05;76.58
11223;BME280;5668;52.012;8.724;2022-07-10T13:10:52;100986.34;;;19.02;76.51
11223;BME280;5668;52.012;8.724;2022-07-10T13:13:20;100989.53;;;19.06;76.05
11223;BME280;5668;52.012;8.724;2022-07-10T13:15:47;100985.63;;;19.10;76.54
11223;BME280;5668;52.012;8.724;2022-07-10T13:18:19;100979.56;;;19.09;76.57
11223;BME280;5668;52.012;8.724;2022-07-10T13:20:48;100981.47;;;19.17;75.46
11223;BME280;5668;52.012;8.724;2022-07-10T13:23:16;100977.09;;;19.25;75.14